Sainte-Famille, Canada
Current Conditions -  °F | °C
As of 5:00 PM on Sunday 25 Jan 2015 (Local Time) from CYQB Reporting Station
Few Clouds Few Clouds  
Wind Chill: -5°   Ceiling: Unl
Heat Index:   Visibility: 20mi
Dew Point: -4°   Wind: 9mph
Humidity: 57%   Direction: 240°WSW
Pressure: 29.79"   Gusts: NA
Location:  46.97°N, 70.95°W
Report Text: CYQB 252200Z 24008KT 20SM FEW030 M13/M20 A2979 RMK SC1 SLP092
Loading
Personal Weather Stations






























Interactive Weather Map New forecast layout! Learn more

10-Day Weather Forecast

Advertisements
Track Severe Weather on mobile